createdAt,value
2022-09-16T00:00:59.763Z,69
2022-09-16T00:03:31.799Z,69
2022-09-16T00:06:07.109Z,69
2022-09-16T00:08:39.869Z,69
2022-09-16T00:11:15.026Z,69
2022-09-16T00:13:59.403Z,69
2022-09-16T00:16:32.214Z,68
2022-09-16T00:19:04.666Z,68
2022-09-16T00:21:38.526Z,68
2022-09-16T00:24:10.926Z,68
2022-09-16T00:26:43.421Z,68
2022-09-16T00:29:15.580Z,68
2022-09-16T00:31:48.771Z,68
2022-09-16T00:34:20.559Z,68
2022-09-16T00:36:56.708Z,68
2022-09-16T00:39:29.831Z,68
2022-09-16T00:42:02.166Z,68
2022-09-16T00:44:35.072Z,68
2022-09-16T00:47:09.709Z,69
2022-09-16T00:49:41.833Z,69
2022-09-16T00:52:14.076Z,69
2022-09-16T00:54:46.078Z,69
2022-09-16T00:57:20.888Z,70
2022-09-16T00:59:53.546Z,70
2022-09-16T01:02:26.012Z,70
2022-09-16T01:04:57.941Z,71
2022-09-16T01:07:34.008Z,71
2022-09-16T01:10:05.560Z,71
2022-09-16T01:12:37.552Z,71
2022-09-16T01:15:13.129Z,70
2022-09-16T01:17:46.108Z,70
2022-09-16T01:20:21.073Z,70
2022-09-16T01:22:52.763Z,70
2022-09-16T01:25:25.493Z,70
2022-09-16T01:27:57.755Z,71
2022-09-16T01:30:30.055Z,70
2022-09-16T01:33:02.804Z,70
2022-09-16T01:35:35.008Z,70
2022-09-16T01:38:07.401Z,70
2022-09-16T01:40:40.969Z,71
2022-09-16T01:43:13.256Z,71
2022-09-16T01:45:44.870Z,71
2022-09-16T01:48:17.512Z,71
2022-09-16T01:50:49.632Z,71
2022-09-16T01:53:22.289Z,71
2022-09-16T01:55:54.978Z,72
2022-09-16T01:58:27.797Z,72
2022-09-16T02:00:59.975Z,73
2022-09-16T02:03:32.373Z,73
2022-09-16T02:06:05.351Z,73
2022-09-16T02:08:37.417Z,73
2022-09-16T02:11:13.639Z,73
2022-09-16T02:13:50.399Z,73
2022-09-16T02:16:21.917Z,73
2022-09-16T02:18:53.893Z,73
2022-09-16T02:21:28.909Z,72
2022-09-16T02:24:03.861Z,72
2022-09-16T02:26:36.171Z,72
2022-09-16T02:29:08.101Z,72
2022-09-16T02:31:43.373Z,73
2022-09-16T02:34:14.390Z,73
2022-09-16T02:36:49.839Z,73
2022-09-16T02:39:21.137Z,73
2022-09-16T02:41:53.879Z,73
2022-09-16T02:44:32.301Z,73
2022-09-16T02:47:04.239Z,73
2022-09-16T02:49:37.143Z,74
2022-09-16T02:52:12.917Z,73
2022-09-16T02:54:45.031Z,73
2022-09-16T02:57:17.925Z,72
2022-09-16T02:59:53.978Z,73
2022-09-16T03:02:28.467Z,72
2022-09-16T03:05:01.392Z,72
2022-09-16T03:07:36.027Z,72
2022-09-16T03:10:08.579Z,73
2022-09-16T03:12:41.129Z,72
2022-09-16T03:15:13.839Z,72
2022-09-16T03:17:49.235Z,72
2022-09-16T03:20:21.135Z,72
2022-09-16T03:22:52.277Z,71
2022-09-16T03:25:25.263Z,72
2022-09-16T03:27:57.899Z,71
2022-09-16T03:30:33.507Z,72
2022-09-16T03:33:05.186Z,71
2022-09-16T03:35:39.246Z,71
2022-09-16T03:38:11.257Z,71
2022-09-16T03:40:44.719Z,71
2022-09-16T03:43:17.413Z,72
2022-09-16T03:45:49.715Z,71
2022-09-16T03:48:25.223Z,72
2022-09-16T03:50:56.807Z,72
2022-09-16T03:53:29.767Z,72
2022-09-16T03:56:02.094Z,72
2022-09-16T03:58:34.579Z,72
2022-09-16T04:01:08.173Z,72
2022-09-16T04:03:41.122Z,72
2022-09-16T04:06:17.405Z,72
2022-09-16T04:08:49.548Z,72
2022-09-16T04:11:22.069Z,72
2022-09-16T04:13:59.052Z,72
2022-09-16T04:16:30.295Z,72
2022-09-16T04:19:04.238Z,73
2022-09-16T04:21:37.109Z,72
2022-09-16T04:24:14.209Z,72
2022-09-16T04:26:47.669Z,72
2022-09-16T04:29:19.223Z,72
2022-09-16T04:31:51.621Z,72
2022-09-16T04:34:24.779Z,73
2022-09-16T04:36:58.549Z,73
2022-09-16T04:39:31.471Z,73
2022-09-16T04:42:04.226Z,73
2022-09-16T04:44:37.009Z,73
2022-09-16T04:47:09.305Z,74
2022-09-16T04:49:42.133Z,74
2022-09-16T04:52:14.889Z,73
2022-09-16T04:54:47.559Z,73
2022-09-16T04:57:19.750Z,73
2022-09-16T04:59:52.609Z,73
2022-09-16T05:02:26.333Z,72
2022-09-16T05:05:01.348Z,72
2022-09-16T05:07:33.881Z,72
2022-09-16T05:10:06.490Z,73
2022-09-16T05:12:41.233Z,73
2022-09-16T05:15:14.969Z,72
2022-09-16T05:17:52.777Z,72
2022-09-16T05:20:29.439Z,72
2022-09-16T05:23:03.001Z,72
2022-09-16T05:25:34.225Z,71
2022-09-16T05:28:07.017Z,71
2022-09-16T05:30:40.374Z,71
2022-09-16T05:33:16.985Z,71
2022-09-16T05:35:48.289Z,71
2022-09-16T05:38:21.373Z,71
2022-09-16T05:40:54.725Z,71
2022-09-16T05:43:27.741Z,71
2022-09-16T05:46:00.931Z,72
2022-09-16T05:48:33.407Z,71
2022-09-16T05:51:07.763Z,71
2022-09-16T05:53:40.990Z,71
2022-09-16T05:56:13.561Z,71
2022-09-16T05:58:47.149Z,71
2022-09-16T06:01:21.863Z,71
2022-09-16T06:03:54.861Z,71
2022-09-16T06:06:30.931Z,72
2022-09-16T06:09:02.848Z,71
2022-09-16T06:11:34.897Z,72
2022-09-16T06:14:07.099Z,72
2022-09-16T06:16:41.982Z,71
2022-09-16T06:19:13.848Z,71
2022-09-16T06:21:45.918Z,71
2022-09-16T06:24:19.372Z,70
2022-09-16T06:26:52.785Z,70
2022-09-16T06:29:25.228Z,71
2022-09-16T06:31:58.032Z,71
2022-09-16T06:34:30.717Z,70
2022-09-16T06:37:03.026Z,70
2022-09-16T06:39:41.599Z,71
2022-09-16T06:42:15.727Z,71
2022-09-16T06:44:46.573Z,71
2022-09-16T06:47:19.320Z,71
2022-09-16T06:49:51.160Z,71
2022-09-16T06:52:23.160Z,71
2022-09-16T06:54:55.909Z,71
2022-09-16T06:57:27.962Z,70
2022-09-16T07:00:00.997Z,71
2022-09-16T07:02:33.880Z,71
2022-09-16T07:05:06.544Z,71
2022-09-16T07:07:38.801Z,70
2022-09-16T07:10:12.087Z,70
2022-09-16T07:12:44.320Z,70
2022-09-16T07:15:19.832Z,69
2022-09-16T07:17:51.423Z,70
2022-09-16T07:20:23.682Z,69
2022-09-16T07:22:56.505Z,68
2022-09-16T07:25:37.302Z,68
2022-09-16T07:28:11.146Z,68
2022-09-16T07:30:43.008Z,68
2022-09-16T07:33:18.857Z,68
2022-09-16T07:35:49.588Z,67
2022-09-16T07:38:21.626Z,66
2022-09-16T07:40:54.234Z,66
2022-09-16T07:43:25.822Z,65
2022-09-16T07:45:58.281Z,66
2022-09-16T07:48:36.117Z,66
2022-09-16T07:51:07.269Z,65
2022-09-16T07:53:39.763Z,65
2022-09-16T07:56:14.315Z,65
2022-09-16T07:58:46.780Z,65
2022-09-16T08:01:22.642Z,65
2022-09-16T08:03:54.228Z,65
2022-09-16T08:06:27.778Z,65
2022-09-16T08:09:51.119Z,66
2022-09-16T08:12:24.562Z,65
2022-09-16T08:14:56.963Z,65
2022-09-16T08:17:34.666Z,64
2022-09-16T08:20:05.399Z,64
2022-09-16T08:22:38.514Z,65
2022-09-16T08:25:13.609Z,64
2022-09-16T08:27:45.704Z,64
2022-09-16T08:30:17.427Z,65
2022-09-16T08:32:49.105Z,64
2022-09-16T08:35:21.613Z,64
2022-09-16T08:37:53.832Z,64
2022-09-16T08:40:27.691Z,63
2022-09-16T08:43:00.566Z,63
2022-09-16T08:45:33.242Z,62
2022-09-16T08:48:05.859Z,62
2022-09-16T08:50:38.790Z,61
2022-09-16T08:53:11.211Z,61
2022-09-16T08:55:43.585Z,61
2022-09-16T08:58:18.075Z,61
2022-09-16T09:00:50.722Z,61
2022-09-16T09:03:24.507Z,61
2022-09-16T09:05:57.662Z,61
2022-09-16T09:08:30.631Z,60
2022-09-16T09:11:03.021Z,59
2022-09-16T09:13:37.987Z,59
2022-09-16T09:16:10.732Z,59
2022-09-16T09:18:43.078Z,59
2022-09-16T09:21:15.970Z,58
2022-09-16T09:23:50.012Z,59
2022-09-16T09:26:23.600Z,59
2022-09-16T09:28:56.634Z,58
2022-09-16T09:31:32.515Z,58
2022-09-16T09:34:05.718Z,58
2022-09-16T09:36:38.379Z,58
2022-09-16T09:39:10.377Z,59
2022-09-16T09:41:45.911Z,60
2022-09-16T09:44:18.105Z,62
2022-09-16T09:46:50.577Z,58
2022-09-16T09:49:24.289Z,58
2022-09-16T09:51:57.570Z,58
2022-09-16T09:54:30.904Z,59
2022-09-16T09:57:07.013Z,61
2022-09-16T09:59:42.143Z,60
2022-09-16T10:02:16.630Z,61
2022-09-16T10:04:48.460Z,59
2022-09-16T10:07:20.274Z,58
2022-09-16T10:09:53.033Z,60
2022-09-16T10:12:25.319Z,63
2022-09-16T10:14:58.431Z,61
2022-09-16T10:17:33.343Z,62
2022-09-16T10:20:05.188Z,62
2022-09-16T10:22:40.718Z,64
2022-09-16T10:27:44.189Z,64
2022-09-16T10:30:18.951Z,63
2022-09-16T10:32:57.321Z,62
2022-09-16T10:35:29.759Z,62
2022-09-16T10:38:02.236Z,62
2022-09-16T10:40:35.368Z,64
2022-09-16T10:43:07.857Z,64
2022-09-16T10:45:44.016Z,63
2022-09-16T10:48:15.375Z,63
2022-09-16T10:50:47.757Z,64
2022-09-16T10:53:20.565Z,65
2022-09-16T10:55:54.049Z,65
2022-09-16T10:58:27.377Z,65
2022-09-16T11:01:01.649Z,66
2022-09-16T11:03:34.489Z,65
2022-09-16T11:06:07.675Z,66
2022-09-16T11:08:39.889Z,65
2022-09-16T11:11:17.594Z,65
2022-09-16T11:13:51.164Z,64
2022-09-16T11:16:25.534Z,64
2022-09-16T11:18:57.261Z,64
2022-09-16T11:21:30.021Z,64
2022-09-16T11:24:02.867Z,64
2022-09-16T11:26:35.953Z,65
2022-09-16T11:29:07.786Z,66
2022-09-16T11:31:41.224Z,66
2022-09-16T11:34:17.008Z,67
2022-09-16T11:36:52.000Z,69
2022-09-16T11:39:25.463Z,70
2022-09-16T11:41:57.434Z,70
2022-09-16T11:44:29.737Z,70
2022-09-16T11:47:02.150Z,72
2022-09-16T11:49:33.619Z,72
2022-09-16T11:52:05.730Z,73
2022-09-16T11:54:38.299Z,74
2022-09-16T11:57:15.766Z,74
2022-09-16T11:59:47.006Z,74
2022-09-16T12:02:20.902Z,75
2022-09-16T12:04:54.021Z,74
2022-09-16T12:07:27.727Z,75
2022-09-16T12:10:00.354Z,76
2022-09-16T12:12:33.715Z,75
2022-09-16T12:15:06.714Z,76
2022-09-16T12:17:40.141Z,76
2022-09-16T12:20:12.493Z,76
2022-09-16T12:22:46.152Z,76
2022-09-16T12:25:18.837Z,75
2022-09-16T12:27:51.237Z,76
2022-09-16T12:30:24.870Z,76
2022-09-16T12:32:58.057Z,75
2022-09-16T12:38:04.754Z,75
2022-09-16T12:40:38.641Z,75
2022-09-16T12:43:11.324Z,75
2022-09-16T12:45:43.379Z,75
2022-09-16T12:48:16.516Z,75
2022-09-16T12:50:48.708Z,76
2022-09-16T12:53:21.203Z,76
2022-09-16T12:55:54.447Z,75
2022-09-16T12:58:29.161Z,76
2022-09-16T13:01:03.207Z,76
2022-09-16T13:03:37.648Z,77
2022-09-16T13:06:09.687Z,77
2022-09-16T13:08:40.566Z,76
2022-09-16T13:12:45.588Z,77
2022-09-16T13:15:15.047Z,75
2022-09-16T13:17:47.940Z,76
2022-09-16T13:20:20.901Z,76
2022-09-16T13:22:54.818Z,76
2022-09-16T13:25:26.948Z,77
2022-09-16T13:28:00.520Z,77
2022-09-16T13:30:33.232Z,77
2022-09-16T13:33:06.606Z,76
2022-09-16T13:35:39.866Z,75
2022-09-16T13:38:14.203Z,75
2022-09-16T13:40:47.222Z,75
2022-09-16T13:43:20.261Z,76
2022-09-16T13:45:52.983Z,76
2022-09-16T13:48:25.364Z,76
2022-09-16T13:50:58.497Z,75
2022-09-16T13:53:30.893Z,76
2022-09-16T13:56:03.596Z,76
2022-09-16T13:58:36.114Z,76
2022-09-16T14:01:11.288Z,76
2022-09-16T14:03:46.708Z,76
2022-09-16T14:06:21.579Z,75
2022-09-16T14:08:53.198Z,75
2022-09-16T14:11:25.759Z,75
2022-09-16T14:14:47.632Z,75
2022-09-16T14:17:18.350Z,73
2022-09-16T14:19:49.629Z,74
2022-09-16T14:22:23.428Z,75
2022-09-16T14:25:30.519Z,74
2022-09-16T14:28:00.803Z,74
2022-09-16T14:30:32.957Z,75
2022-09-16T14:33:06.982Z,75
2022-09-16T14:35:39.764Z,76
2022-09-16T14:39:08.231Z,76
2022-09-16T14:41:38.774Z,75
2022-09-16T14:44:11.059Z,76
2022-09-16T14:46:43.052Z,76
2022-09-16T14:49:18.060Z,76
2022-09-16T14:51:49.239Z,75
2022-09-16T14:54:22.442Z,75
2022-09-16T14:56:54.469Z,75
2022-09-16T14:59:27.079Z,75
2022-09-16T15:01:59.889Z,75
2022-09-16T15:04:32.105Z,75
2022-09-16T15:09:52.982Z,76
2022-09-16T15:12:25.610Z,75
2022-09-16T15:14:58.123Z,76
2022-09-16T15:17:33.588Z,76
2022-09-16T15:20:06.713Z,76
2022-09-16T15:22:40.608Z,76
2022-09-16T15:25:14.028Z,77
2022-09-16T15:27:46.121Z,77
2022-09-16T15:30:18.620Z,77
2022-09-16T15:32:51.145Z,77
2022-09-16T15:35:26.103Z,77
2022-09-16T15:37:58.731Z,77
2022-09-16T15:40:32.473Z,77
2022-09-16T15:43:05.861Z,77
2022-09-16T15:45:39.253Z,76
2022-09-16T15:48:11.315Z,77
2022-09-16T15:50:43.673Z,77
2022-09-16T15:53:17.750Z,77
2022-09-16T15:55:51.281Z,77
2022-09-16T15:58:23.746Z,77
2022-09-16T16:00:58.215Z,78
2022-09-16T16:03:31.043Z,77
2022-09-16T16:06:03.282Z,77
2022-09-16T16:08:38.597Z,77
2022-09-16T16:11:10.968Z,77
2022-09-16T16:13:48.475Z,76
2022-09-16T16:16:20.540Z,76
2022-09-16T16:18:53.524Z,76
2022-09-16T16:21:26.622Z,76
2022-09-16T16:24:00.148Z,76
2022-09-16T16:26:33.062Z,77
2022-09-16T16:29:05.723Z,77
2022-09-16T16:31:38.825Z,78
2022-09-16T16:34:11.691Z,78
2022-09-16T16:36:43.841Z,79
2022-09-16T16:39:16.318Z,79
2022-09-16T16:41:49.667Z,79
2022-09-16T16:44:20.392Z,79
2022-09-16T16:46:52.893Z,80
2022-09-16T16:49:25.677Z,80
2022-09-16T16:51:58.345Z,81
2022-09-16T16:54:31.069Z,81
2022-09-16T16:57:04.333Z,81
2022-09-16T16:59:36.591Z,82
2022-09-16T17:02:10.046Z,82
2022-09-16T17:04:42.515Z,82
2022-09-16T17:07:28.929Z,82
2022-09-16T17:09:59.704Z,83
2022-09-16T17:12:36.188Z,82
2022-09-16T17:15:07.549Z,82
2022-09-16T17:17:40.508Z,83
2022-09-16T17:20:13.061Z,82
2022-09-16T17:22:45.750Z,83
2022-09-16T17:25:18.476Z,83
2022-09-16T17:27:51.987Z,83
2022-09-16T17:30:25.104Z,83
2022-09-16T17:32:56.717Z,84
2022-09-16T17:35:29.332Z,84
2022-09-16T17:38:07.857Z,84
2022-09-16T17:40:40.415Z,85
2022-09-16T17:43:13.618Z,84
2022-09-16T17:45:46.541Z,84
2022-09-16T17:48:32.392Z,84
2022-09-16T17:51:05.020Z,83
2022-09-16T17:53:39.101Z,83
2022-09-16T17:56:11.398Z,83
2022-09-16T17:58:44.123Z,83
2022-09-16T18:01:19.291Z,84
2022-09-16T18:03:53.973Z,84
2022-09-16T18:06:26.686Z,84
2022-09-16T18:08:59.154Z,85
2022-09-16T18:11:31.625Z,84
2022-09-16T18:14:05.986Z,84
2022-09-16T18:16:37.075Z,84
2022-09-16T18:19:10.386Z,84
2022-09-16T18:21:43.642Z,83
2022-09-16T18:24:15.992Z,84
2022-09-16T18:26:49.382Z,84
2022-09-16T18:29:23.445Z,84
2022-09-16T18:31:55.690Z,84
2022-09-16T18:34:34.408Z,84
2022-09-16T18:37:05.524Z,83
2022-09-16T18:39:39.612Z,84
2022-09-16T18:42:12.420Z,84
2022-09-16T18:44:45.658Z,84
2022-09-16T18:47:17.619Z,83
2022-09-16T18:49:51.944Z,84
2022-09-16T18:52:24.181Z,84
2022-09-16T18:55:06.285Z,84
2022-09-16T18:57:38.367Z,84
2022-09-16T19:00:11.174Z,85
2022-09-16T19:02:44.050Z,86
2022-09-16T19:05:17.200Z,85
2022-09-16T19:07:49.937Z,85
2022-09-16T19:10:22.616Z,85
2022-09-16T19:12:59.634Z,86
2022-09-16T19:15:35.025Z,85
2022-09-16T19:18:06.644Z,85
2022-09-16T19:20:39.561Z,86
2022-09-16T19:23:12.291Z,85
2022-09-16T19:25:44.865Z,84
2022-09-16T19:28:19.486Z,84
2022-09-16T19:30:53.464Z,83
2022-09-16T19:33:26.992Z,82
2022-09-16T19:36:01.091Z,82
2022-09-16T19:38:34.289Z,82
2022-09-16T19:41:06.343Z,83
2022-09-16T19:43:38.747Z,83
2022-09-16T19:46:12.438Z,82
2022-09-16T19:48:44.810Z,82
2022-09-16T19:51:21.360Z,82
2022-09-16T19:53:53.090Z,83
2022-09-16T19:56:26.473Z,82
2022-09-16T19:59:00.493Z,83
2022-09-16T20:01:34.070Z,84
2022-09-16T20:04:06.022Z,83
2022-09-16T20:06:38.679Z,83
2022-09-16T20:09:11.281Z,83
2022-09-16T20:11:44.965Z,84
2022-09-16T20:14:18.701Z,84
2022-09-16T20:16:53.203Z,84
2022-09-16T20:19:28.305Z,84
2022-09-16T20:22:01.720Z,83
2022-09-16T20:24:39.322Z,83
2022-09-16T20:27:11.190Z,83
2022-09-16T20:29:44.822Z,84
2022-09-16T20:32:17.151Z,85
2022-09-16T20:34:49.498Z,84
2022-09-16T20:37:21.563Z,84
2022-09-16T20:39:54.167Z,84
2022-09-16T20:42:27.837Z,84
2022-09-16T20:45:03.024Z,84
2022-09-16T20:47:39.059Z,84
2022-09-16T20:50:11.524Z,84
2022-09-16T20:52:43.037Z,84
2022-09-16T20:55:16.624Z,84
2022-09-16T20:57:55.459Z,84
2022-09-16T21:00:26.540Z,84
2022-09-16T21:03:00.237Z,84
2022-09-16T21:05:34.336Z,84
2022-09-16T21:08:06.329Z,84
2022-09-16T21:10:39.200Z,84
2022-09-16T21:13:14.349Z,84
2022-09-16T21:15:48.148Z,84
2022-09-16T21:18:22.803Z,84
2022-09-16T21:20:58.152Z,83
2022-09-16T21:23:31.184Z,84
2022-09-16T21:26:07.327Z,83
2022-09-16T21:28:40.497Z,83
2022-09-16T21:31:13.489Z,83
2022-09-16T21:33:48.928Z,83
2022-09-16T21:36:20.653Z,82
2022-09-16T21:38:53.605Z,82
2022-09-16T21:41:25.475Z,83
2022-09-16T21:43:57.542Z,83
2022-09-16T21:46:31.258Z,83
2022-09-16T21:49:09.073Z,83
2022-09-16T21:51:43.091Z,84
2022-09-16T21:54:32.833Z,84
2022-09-16T21:59:46.423Z,83
2022-09-16T22:02:18.905Z,84
2022-09-16T22:04:52.284Z,84
2022-09-16T22:07:24.401Z,84
2022-09-16T22:09:56.799Z,83
2022-09-16T22:12:30.199Z,83
2022-09-16T22:15:16.284Z,83
2022-09-16T22:17:52.789Z,83
2022-09-16T22:20:30.472Z,84
2022-09-16T22:23:02.280Z,83
2022-09-16T22:25:34.803Z,84
2022-09-16T22:28:09.782Z,83
2022-09-16T22:30:48.151Z,83
2022-09-16T22:33:19.921Z,82
2022-09-16T22:36:01.931Z,82
2022-09-16T22:38:33.158Z,83
2022-09-16T22:41:05.122Z,82
2022-09-16T22:43:37.428Z,83
2022-09-16T22:46:10.641Z,83
2022-09-16T22:48:42.814Z,84
2022-09-16T22:51:15.534Z,83
2022-09-16T22:53:51.362Z,83
2022-09-16T22:56:24.238Z,83
2022-09-16T22:58:57.005Z,84
2022-09-16T23:01:29.470Z,83
2022-09-16T23:04:03.892Z,83
2022-09-16T23:06:36.385Z,83
2022-09-16T23:09:07.282Z,83
2022-09-16T23:11:39.573Z,83
2022-09-16T23:14:13.144Z,83
2022-09-16T23:16:43.326Z,82
2022-09-16T23:19:15.377Z,83
2022-09-16T23:21:48.377Z,83
2022-09-16T23:24:20.310Z,83
2022-09-16T23:26:52.314Z,83
2022-09-16T23:29:24.729Z,84
2022-09-16T23:31:56.520Z,82
2022-09-16T23:34:32.556Z,83
2022-09-16T23:37:06.755Z,83
2022-09-16T23:39:39.958Z,83
2022-09-16T23:42:20.912Z,84
2022-09-16T23:44:54.206Z,83
2022-09-16T23:47:33.286Z,84
2022-09-16T23:50:04.475Z,83
2022-09-16T23:52:38.430Z,83
2022-09-16T23:55:13.311Z,83
2022-09-16T23:57:46.400Z,83
